Time;durP1;ratioP1;P1;durP2;ratioP2;P2;SDS_P1;SDS_P2;PMS_P1;PMS_P2;Temp;Humidity;BMP_temperature;BMP_pressure;BME280_temperature;BME280_humidity;BME280_pressure;Samples;Min_cycle;Max_cycle;Signal;HPM_P1;HPM_P2
2021/06/29 00:01:35;;;;;;;0.20;0.20;;;22.40;67.10;;;;;;4990219;28;20022;-19
2021/06/29 00:04:01;;;;;;;0.38;0.13;;;22.40;66.10;;;;;;4990306;28;20104;-18
2021/06/29 00:06:26;;;;;;;0.32;0.17;;;22.40;66.40;;;;;;4990336;28;20023;-21
2021/06/29 00:08:52;;;;;;;0.73;0.20;;;22.40;66.20;;;;;;4990212;28;20897;-20
2021/06/29 00:11:17;;;;;;;0.30;0.28;;;22.40;66.00;;;;;;4990887;28;20031;-29
2021/06/29 00:13:44;;;;;;;0.50;0.30;;;22.50;65.90;;;;;;4991087;28;20030;-18
2021/06/29 00:16:10;;;;;;;0.30;0.30;;;22.40;66.70;;;;;;4988896;28;20026;-18
2021/06/29 00:18:35;;;;;;;0.15;0.10;;;22.40;66.10;;;;;;4990151;28;20037;-19
2021/06/29 00:21:01;;;;;;;0.15;0.15;;;22.40;66.10;;;;;;5005181;28;20034;-19
2021/06/29 00:23:27;;;;;;;2.20;0.40;;;22.40;66.10;;;;;;4990547;28;20468;-18
2021/06/29 00:25:52;;;;;;;0.20;0.20;;;22.40;65.90;;;;;;4991130;28;20034;-20
2021/06/29 00:28:18;;;;;;;0.10;0.10;;;22.40;65.90;;;;;;4989319;28;20035;-19
2021/06/29 00:30:43;;;;;;;0.20;0.20;;;22.40;65.90;;;;;;4989421;28;20050;-20
2021/06/29 00:33:09;;;;;;;0.20;0.20;;;22.40;65.80;;;;;;4989677;28;20505;-18
2021/06/29 00:35:35;;;;;;;0.28;0.22;;;22.50;65.80;;;;;;4989843;28;20030;-19
2021/06/29 00:38:01;;;;;;;0.20;0.20;;;22.40;65.80;;;;;;4990940;28;20125;-18
2021/06/29 00:40:26;;;;;;;0.10;0.10;;;22.50;65.60;;;;;;4989348;28;20025;-18
2021/06/29 00:42:52;;;;;;;0.35;0.30;;;22.50;65.50;;;;;;4989637;28;20448;-18
2021/06/29 00:45:18;;;;;;;0.20;0.20;;;22.50;65.40;;;;;;4989787;28;20496;-20
2021/06/29 00:47:43;;;;;;;0.20;0.20;;;22.50;65.20;;;;;;4989168;28;20092;-18
2021/06/29 00:50:09;;;;;;;0.20;0.20;;;22.50;65.10;;;;;;4990353;28;20404;-19
2021/06/29 00:52:35;;;;;;;0.80;0.13;;;22.50;65.20;;;;;;4989179;28;20057;-19
2021/06/29 00:55:00;;;;;;;0.20;0.20;;;22.50;65.50;;;;;;4967365;28;20078;-19
2021/06/29 00:57:26;;;;;;;0.57;0.20;;;22.40;66.50;;;;;;4979455;28;20027;-19
2021/06/29 00:59:51;;;;;;;0.40;0.20;;;22.50;65.40;;;;;;4989678;28;20034;-20
2021/06/29 01:02:17;;;;;;;0.28;0.28;;;22.50;65.50;;;;;;4990326;28;20058;-22
2021/06/29 01:04:43;;;;;;;0.10;0.10;;;22.40;65.60;;;;;;4989982;28;20089;-21
2021/06/29 01:07:12;;;;;;;0.30;0.25;;;22.50;65.40;;;;;;4989641;28;20030;-20
2021/06/29 01:09:38;;;;;;;0.88;0.30;;;22.50;65.50;;;;;;4990770;28;20900;-26
2021/06/29 01:12:05;;;;;;;1.38;0.40;;;22.50;65.40;;;;;;4990543;28;20508;-21
2021/06/29 01:14:31;;;;;;;0.10;0.10;;;22.50;65.10;;;;;;4989448;28;20029;-20
2021/06/29 01:16:57;;;;;;;0.20;0.20;;;22.50;65.10;;;;;;4990235;28;20030;-19
2021/06/29 01:19:32;;;;;;;0.20;0.20;;;22.50;65.20;;;;;;4989300;28;20383;-20
2021/06/29 01:21:58;;;;;;;0.57;0.20;;;22.50;65.40;;;;;;4989105;28;20037;-19
2021/06/29 01:24:31;;;;;;;0.20;0.20;;;22.40;65.30;;;;;;4988790;28;20030;-20
2021/06/29 01:32:21;;;;;;;0.13;0.13;;;22.50;65.10;;;;;;4947880;28;20039;-19
2021/06/29 01:34:46;;;;;;;0.20;0.20;;;22.50;65.30;;;;;;4949880;28;20437;-21
2021/06/29 01:37:12;;;;;;;0.88;0.20;;;22.50;65.10;;;;;;4951391;28;20675;-19
2021/06/29 01:39:55;;;;;;;0.20;0.20;;;22.50;65.00;;;;;;4950652;28;20462;-19
2021/06/29 01:42:21;;;;;;;0.22;0.22;;;22.50;65.00;;;;;;4942510;28;20067;-29
2021/06/29 01:44:46;;;;;;;1.10;0.20;;;22.40;64.90;;;;;;4946806;28;20062;-20
2021/06/29 01:47:14;;;;;;;0.40;0.10;;;22.50;65.10;;;;;;4952563;29;20099;-19
2021/06/29 01:49:39;;;;;;;0.20;0.20;;;22.50;65.00;;;;;;4950165;28;20067;-19
2021/06/29 01:52:05;;;;;;;0.10;0.10;;;22.50;65.10;;;;;;4947671;28;20188;-19
2021/06/29 01:54:31;;;;;;;0.35;0.30;;;22.40;65.00;;;;;;4938366;29;20030;-20
2021/06/29 01:56:56;;;;;;;0.20;0.20;;;22.40;65.00;;;;;;4954185;28;20101;-19
2021/06/29 01:59:23;;;;;;;0.20;0.20;;;22.40;64.90;;;;;;4952104;28;20028;-20
2021/06/29 02:01:48;;;;;;;0.22;0.20;;;22.40;65.00;;;;;;4952663;28;20069;-19
2021/06/29 02:04:14;;;;;;;0.20;0.20;;;22.40;65.00;;;;;;4949026;28;20067;-22
2021/06/29 02:06:40;;;;;;;0.10;0.10;;;22.40;64.90;;;;;;4952877;28;20035;-21
2021/06/29 02:09:09;;;;;;;0.20;0.20;;;22.50;64.80;;;;;;4971600;28;20042;-21
2021/06/29 02:11:38;;;;;;;0.10;0.10;;;22.40;64.80;;;;;;4992463;28;20644;-19
2021/06/29 02:14:04;;;;;;;0.10;0.10;;;22.50;64.70;;;;;;4993891;28;20081;-20
2021/06/29 02:16:30;;;;;;;0.20;0.20;;;22.50;64.60;;;;;;4992890;28;20034;-19
2021/06/29 02:18:56;;;;;;;0.10;0.10;;;22.50;64.60;;;;;;4986838;28;20046;-19
2021/06/29 02:21:21;;;;;;;0.20;0.10;;;22.50;64.60;;;;;;4988144;28;20057;-20
2021/06/29 02:23:47;;;;;;;0.20;0.20;;;22.40;64.50;;;;;;4992958;28;20038;-23
2021/06/29 02:26:12;;;;;;;0.10;0.10;;;22.40;64.70;;;;;;4993198;28;20030;-19
2021/06/29 02:28:38;;;;;;;0.20;0.20;;;22.40;65.00;;;;;;4992264;28;20034;-19
2021/06/29 02:31:03;;;;;;;0.20;0.15;;;22.40;64.80;;;;;;4992144;28;20034;-20
2021/06/29 02:33:29;;;;;;;0.20;0.20;;;22.40;64.70;;;;;;4991718;28;20446;-20
2021/06/29 02:35:54;;;;;;;0.10;0.10;;;22.50;64.50;;;;;;4974682;28;20026;-19
2021/06/29 02:38:22;;;;;;;0.20;0.20;;;22.40;64.70;;;;;;4992596;28;20568;-20
2021/06/29 02:40:48;;;;;;;0.30;0.30;;;22.40;64.60;;;;;;4992542;28;20053;-19
2021/06/29 02:43:15;;;;;;;0.10;0.10;;;22.40;64.80;;;;;;4991820;28;20068;-20
2021/06/29 02:45:42;;;;;;;0.20;0.20;;;22.40;64.70;;;;;;4992268;28;20027;-19
2021/06/29 02:48:08;;;;;;;0.30;0.30;;;22.40;64.60;;;;;;4992071;28;20049;-19
2021/06/29 02:50:34;;;;;;;0.22;0.10;;;22.40;64.50;;;;;;4990218;28;20089;-19
2021/06/29 02:53:00;;;;;;;0.10;0.10;;;22.50;64.50;;;;;;4992608;28;20501;-20
2021/06/29 02:55:25;;;;;;;0.20;0.20;;;22.50;64.50;;;;;;4992059;28;20101;-21
2021/06/29 02:57:51;;;;;;;0.17;0.10;;;22.40;64.60;;;;;;4990989;28;20043;-19
2021/06/29 03:00:18;;;;;;;0.20;0.20;;;22.50;64.50;;;;;;4991008;28;20097;-19
2021/06/29 03:02:44;;;;;;;0.17;0.10;;;22.40;64.60;;;;;;4991584;28;20026;-21
2021/06/29 03:05:10;;;;;;;0.10;0.10;;;22.50;64.50;;;;;;4992433;28;20034;-19
2021/06/29 03:07:35;;;;;;;0.17;0.17;;;22.50;64.50;;;;;;4991838;28;20173;-23
2021/06/29 03:10:02;;;;;;;0.20;0.20;;;22.40;64.60;;;;;;4990947;28;20113;-20
2021/06/29 03:12:28;;;;;;;0.57;0.57;;;22.40;64.50;;;;;;4991210;28;20092;-21
2021/06/29 03:14:56;;;;;;;0.15;0.10;;;22.50;64.40;;;;;;4991551;28;20516;-20
2021/06/29 03:17:22;;;;;;;0.20;0.20;;;22.50;64.50;;;;;;4991486;28;20037;-22
2021/06/29 03:19:48;;;;;;;0.00;0.00;;;22.40;64.60;;;;;;4991662;28;20026;-19
2021/06/29 03:22:13;;;;;;;0.20;0.20;;;22.40;64.60;;;;;;4990991;28;20041;-19
2021/06/29 03:24:39;;;;;;;0.13;0.13;;;22.40;64.30;;;;;;4991076;28;20034;-20
2021/06/29 03:27:05;;;;;;;0.73;0.10;;;22.40;64.50;;;;;;4991452;28;20513;-19
2021/06/29 03:29:30;;;;;;;0.20;0.10;;;22.40;64.50;;;;;;4990868;28;20034;-19
2021/06/29 03:31:56;;;;;;;0.20;0.20;;;22.40;64.40;;;;;;4991896;28;20026;-19
2021/06/29 03:34:22;;;;;;;0.15;0.15;;;22.40;64.60;;;;;;4990541;28;20026;-20
2021/06/29 03:36:47;;;;;;;0.80;0.10;;;22.40;64.60;;;;;;4990898;28;20579;-19
2021/06/29 03:39:13;;;;;;;0.10;0.10;;;22.40;64.50;;;;;;4991130;28;20108;-19
2021/06/29 03:41:39;;;;;;;0.10;0.10;;;22.40;64.50;;;;;;4990840;28;20033;-28
2021/06/29 03:44:04;;;;;;;0.10;0.10;;;22.40;64.70;;;;;;4992135;28;20061;-28
2021/06/29 03:46:30;;;;;;;0.10;0.10;;;22.40;64.60;;;;;;4990877;28;20114;-19
2021/06/29 03:48:56;;;;;;;0.10;0.10;;;22.40;64.50;;;;;;4990701;28;20488;-20
2021/06/29 03:51:21;;;;;;;0.10;0.10;;;22.40;64.50;;;;;;4990380;28;20046;-19
2021/06/29 03:53:47;;;;;;;0.20;0.10;;;22.30;64.70;;;;;;4991179;28;20041;-19
2021/06/29 03:56:29;;;;;;;0.10;0.10;;;22.30;64.60;;;;;;4974039;28;20041;-18
2021/06/29 03:58:55;;;;;;;0.10;0.10;;;22.40;64.70;;;;;;4990817;28;20089;-18
2021/06/29 04:01:21;;;;;;;0.10;0.10;;;22.30;64.60;;;;;;4990310;28;20036;-19
2021/06/29 04:03:48;;;;;;;0.10;0.10;;;22.40;64.60;;;;;;4989337;28;20325;-23
2021/06/29 04:06:13;;;;;;;0.10;0.10;;;22.40;64.70;;;;;;4990618;28;20030;-21
2021/06/29 04:08:39;;;;;;;0.25;0.10;;;22.30;64.70;;;;;;4990574;28;20120;-21
2021/06/29 04:11:05;;;;;;;0.08;0.08;;;22.40;64.60;;;;;;4991332;28;20097;-20
2021/06/29 04:13:30;;;;;;;0.10;0.10;;;22.40;64.60;;;;;;4990493;28;20034;-19
2021/06/29 04:15:56;;;;;;;0.10;0.10;;;22.30;64.70;;;;;;4990131;28;20029;-19
2021/06/29 04:18:21;;;;;;;0.17;0.17;;;22.30;64.80;;;;;;4989793;28;20038;-19
2021/06/29 04:20:47;;;;;;;0.10;0.10;;;22.30;64.70;;;;;;4989931;28;20433;-26
2021/06/29 04:23:12;;;;;;;0.10;0.10;;;22.30;64.70;;;;;;4991451;28;20029;-19
2021/06/29 04:25:38;;;;;;;0.20;0.20;;;22.30;64.70;;;;;;4990376;28;20105;-18
2021/06/29 04:28:04;;;;;;;0.10;0.10;;;22.30;64.80;;;;;;4989832;28;20590;-29
2021/06/29 04:30:29;;;;;;;0.20;0.20;;;22.30;64.70;;;;;;4989144;28;20034;-18
2021/06/29 04:32:55;;;;;;;0.10;0.10;;;22.30;64.50;;;;;;4990591;28;20081;-19
2021/06/29 04:35:21;;;;;;;0.10;0.10;;;22.30;64.70;;;;;;4990219;28;20027;-19
2021/06/29 04:37:47;;;;;;;0.10;0.10;;;22.30;64.90;;;;;;4990345;28;20044;-19
2021/06/29 04:40:13;;;;;;;0.20;0.20;;;22.30;64.90;;;;;;4989449;28;20109;-19
2021/06/29 04:42:38;;;;;;;0.20;0.20;;;22.30;64.90;;;;;;4990003;28;20077;-18
2021/06/29 04:45:04;;;;;;;0.20;0.15;;;22.20;64.90;;;;;;4989310;28;20038;-19
2021/06/29 04:47:36;;;;;;;0.10;0.10;;;22.30;65.50;;;;;;4988972;28;20414;-19
2021/06/29 04:50:03;;;;;;;0.10;0.10;;;22.30;64.60;;;;;;4988380;28;20030;-20
2021/06/29 04:52:29;;;;;;;0.17;0.10;;;22.30;65.00;;;;;;4965546;28;20088;-19
2021/06/29 04:54:54;;;;;;;0.10;0.10;;;22.20;64.90;;;;;;4989033;28;20512;-36
2021/06/29 04:57:20;;;;;;;0.10;0.10;;;22.30;64.70;;;;;;4989322;28;20042;-19
2021/06/29 04:59:45;;;;;;;0.10;0.10;;;22.30;64.70;;;;;;4989772;28;20048;-19
2021/06/29 05:02:11;;;;;;;0.20;0.10;;;22.30;64.60;;;;;;4989732;28;20489;-19
2021/06/29 05:04:36;;;;;;;0.10;0.10;;;22.30;64.80;;;;;;4989332;28;20030;-20
2021/06/29 05:07:02;;;;;;;0.10;0.03;;;22.30;64.80;;;;;;4989241;28;20022;-20
2021/06/29 05:09:28;;;;;;;0.08;0.08;;;22.20;65.60;;;;;;4988815;28;20024;-19
2021/06/29 05:11:53;;;;;;;0.10;0.10;;;22.20;64.80;;;;;;4989412;28;20030;-24
2021/06/29 05:14:19;;;;;;;0.10;0.10;;;22.30;64.70;;;;;;4989380;28;20097;-19
2021/06/29 05:16:44;;;;;;;0.10;0.10;;;22.20;64.80;;;;;;5003983;28;20026;-19
2021/06/29 05:19:10;;;;;;;0.15;0.10;;;22.20;64.90;;;;;;4988787;28;20112;-19
2021/06/29 05:21:36;;;;;;;0.13;0.13;;;22.20;64.90;;;;;;4988636;28;20057;-20
2021/06/29 05:24:01;;;;;;;0.10;0.10;;;22.20;64.80;;;;;;4989403;28;20045;-19
2021/06/29 05:26:27;;;;;;;0.00;0.00;;;22.20;64.90;;;;;;4989070;28;20026;-19
2021/06/29 05:28:52;;;;;;;0.25;0.17;;;22.20;65.00;;;;;;4989137;28;20037;-21
2021/06/29 05:31:18;;;;;;;0.10;0.10;;;22.20;64.70;;;;;;4988561;28;20072;-23
2021/06/29 05:33:44;;;;;;;0.10;0.10;;;22.20;64.80;;;;;;4988160;28;20072;-23
2021/06/29 05:36:09;;;;;;;0.30;0.10;;;22.20;64.80;;;;;;4988671;28;20420;-19
2021/06/29 05:38:35;;;;;;;0.10;0.10;;;22.20;64.80;;;;;;4987725;28;20523;-20
2021/06/29 05:41:00;;;;;;;0.10;0.10;;;22.30;64.80;;;;;;4983865;28;20053;-21
2021/06/29 05:43:26;;;;;;;0.10;0.10;;;22.30;64.80;;;;;;4987086;28;20030;-29
2021/06/29 05:45:52;;;;;;;0.10;0.10;;;22.30;64.80;;;;;;4987446;28;20098;-20
2021/06/29 05:48:18;;;;;;;0.00;0.00;;;22.20;64.80;;;;;;4987799;28;20150;-20
2021/06/29 05:50:44;;;;;;;0.10;0.10;;;22.20;65.60;;;;;;4987623;28;20118;-20
2021/06/29 05:53:10;;;;;;;0.10;0.10;;;22.20;64.80;;;;;;4988630;28;20164;-20
2021/06/29 05:55:35;;;;;;;0.20;0.10;;;22.20;64.90;;;;;;4987269;28;20553;-19
2021/06/29 05:58:01;;;;;;;0.10;0.10;;;22.20;65.00;;;;;;4986994;28;20094;-19
2021/06/29 06:00:26;;;;;;;0.10;0.10;;;22.20;65.10;;;;;;4986609;28;20134;-26
2021/06/29 06:03:11;;;;;;;0.20;0.20;;;22.20;65.30;;;;;;4986726;28;20053;-21
2021/06/29 06:05:36;;;;;;;0.17;0.10;;;22.10;65.30;;;;;;4987084;28;20030;-24
2021/06/29 06:08:02;;;;;;;0.10;0.10;;;22.10;65.20;;;;;;4296651;28;10001058;-22
2021/06/29 06:10:28;;;;;;;0.20;0.10;;;22.20;65.30;;;;;;4983968;28;20588;-20
2021/06/29 06:12:53;;;;;;;0.20;0.20;;;22.20;65.20;;;;;;4983579;28;20130;-20
2021/06/29 06:15:20;;;;;;;0.20;0.20;;;22.20;65.00;;;;;;4979321;28;20034;-22
2021/06/29 06:17:45;;;;;;;0.10;0.10;;;22.20;65.00;;;;;;4983941;28;20055;-22
2021/06/29 06:20:11;;;;;;;0.00;0.00;;;22.30;64.80;;;;;;4983945;28;20485;-21
2021/06/29 06:22:37;;;;;;;0.20;0.20;;;22.20;65.00;;;;;;4984296;28;20042;-20
2021/06/29 06:25:05;;;;;;;1.20;0.20;;;22.20;65.20;;;;;;4984549;28;20248;-21
2021/06/29 06:27:30;;;;;;;0.15;0.15;;;22.20;65.30;;;;;;4991205;28;20107;-21
2021/06/29 06:29:56;;;;;;;1.17;0.15;;;22.20;65.20;;;;;;4988048;28;20121;-21
2021/06/29 06:32:22;;;;;;;0.20;0.10;;;22.20;65.50;;;;;;4986717;28;20125;-19
2021/06/29 06:34:48;;;;;;;0.32;0.20;;;22.20;65.60;;;;;;4988549;28;20033;-20
2021/06/29 06:37:13;;;;;;;0.13;0.13;;;22.20;65.60;;;;;;4987273;28;20626;-21
2021/06/29 06:39:39;;;;;;;1.10;0.20;;;22.20;65.40;;;;;;4987193;28;20290;-20
2021/06/29 06:42:05;;;;;;;0.10;0.10;;;22.20;66.20;;;;;;4987346;28;20034;-27
2021/06/29 06:44:31;;;;;;;0.20;0.20;;;22.20;65.50;;;;;;4991469;28;20045;-22
2021/06/29 06:46:56;;;;;;;0.30;0.10;;;22.20;65.60;;;;;;4988590;28;20428;-21
2021/06/29 06:49:22;;;;;;;0.10;0.10;;;22.20;65.60;;;;;;4986622;28;20084;-18
2021/06/29 06:51:48;;;;;;;0.32;0.20;;;22.20;65.90;;;;;;4981402;28;20053;-21
2021/06/29 06:54:13;;;;;;;0.32;0.20;;;22.20;65.70;;;;;;4980813;28;20092;-20
2021/06/29 06:56:39;;;;;;;0.35;0.20;;;22.20;65.70;;;;;;4985779;28;20031;-26
2021/06/29 06:59:04;;;;;;;0.15;0.15;;;22.20;65.70;;;;;;4971745;28;20519;-25
2021/06/29 07:01:30;;;;;;;0.17;0.10;;;22.20;65.80;;;;;;4977328;28;20038;-21
2021/06/29 07:03:56;;;;;;;0.10;0.10;;;22.20;65.80;;;;;;4985433;28;20807;-23
2021/06/29 07:06:21;;;;;;;0.20;0.10;;;22.20;66.00;;;;;;4982205;28;20685;-20
2021/06/29 07:08:47;;;;;;;0.13;0.13;;;22.20;65.80;;;;;;4983217;28;20033;-21
2021/06/29 07:11:12;;;;;;;0.20;0.20;;;22.20;65.90;;;;;;4984439;28;20032;-21
2021/06/29 07:13:38;;;;;;;2.22;0.20;;;22.20;66.30;;;;;;4984827;28;20027;-20
2021/06/29 07:16:04;;;;;;;0.57;0.17;;;22.10;66.30;;;;;;4986909;28;20030;-19
2021/06/29 07:18:30;;;;;;;0.30;0.20;;;22.10;66.70;;;;;;4982592;28;20038;-21
2021/06/29 07:20:56;;;;;;;0.35;0.28;;;22.10;66.60;;;;;;4985886;28;20085;-20
2021/06/29 07:23:22;;;;;;;0.45;0.30;;;22.10;66.40;;;;;;4981006;28;20019;-20
2021/06/29 07:25:47;;;;;;;0.20;0.20;;;22.10;66.70;;;;;;4986484;28;20024;-20
2021/06/29 07:28:13;;;;;;;0.57;0.20;;;22.10;66.90;;;;;;4985239;28;20034;-22
2021/06/29 07:30:39;;;;;;;0.22;0.17;;;22.00;67.10;;;;;;4985553;28;20037;-19
2021/06/29 07:33:09;;;;;;;0.20;0.20;;;22.00;67.10;;;;;;4985428;28;20030;-21
2021/06/29 07:35:36;;;;;;;1.50;0.30;;;22.10;66.70;;;;;;4985147;28;20069;-21
2021/06/29 07:38:02;;;;;;;0.30;0.30;;;22.00;66.80;;;;;;5000983;28;20093;-20
2021/06/29 07:40:29;;;;;;;0.20;0.20;;;22.10;67.10;;;;;;4982845;28;20465;-20
2021/06/29 07:42:59;;;;;;;0.85;0.20;;;22.00;67.00;;;;;;4984701;28;20057;-21
2021/06/29 07:45:27;;;;;;;0.20;0.20;;;22.00;67.00;;;;;;4983559;28;20109;-20
2021/06/29 07:47:52;;;;;;;0.30;0.30;;;22.00;67.40;;;;;;4986064;28;20109;-22
2021/06/29 07:50:18;;;;;;;0.20;0.20;;;22.00;67.40;;;;;;4986995;28;20117;-21
2021/06/29 07:52:44;;;;;;;0.38;0.38;;;22.10;66.90;;;;;;4986277;28;20062;-21
2021/06/29 07:55:10;;;;;;;0.30;0.30;;;22.00;67.10;;;;;;4989090;28;20101;-21
2021/06/29 07:57:36;;;;;;;0.28;0.28;;;22.10;67.10;;;;;;4989839;28;20050;-19
2021/06/29 08:00:02;;;;;;;0.50;0.50;;;22.10;66.80;;;;;;4989502;28;20148;-19
2021/06/29 08:02:28;;;;;;;0.60;0.60;;;22.20;66.50;;;;;;4989578;28;20026;-22
2021/06/29 08:04:53;;;;;;;0.57;0.50;;;22.20;66.30;;;;;;4990915;28;20030;-19
2021/06/29 08:07:19;;;;;;;0.50;0.50;;;22.20;66.00;;;;;;4990076;28;20027;-19
2021/06/29 08:09:44;;;;;;;0.63;0.50;;;22.20;65.90;;;;;;4989736;28;20031;-18
2021/06/29 08:12:10;;;;;;;0.57;0.55;;;22.20;66.10;;;;;;4989906;28;20031;-18
2021/06/29 08:14:36;;;;;;;0.60;0.60;;;22.10;66.40;;;;;;4989451;28;20034;-20
2021/06/29 08:17:03;;;;;;;0.93;0.70;;;22.10;65.80;;;;;;4990482;28;20026;-18
2021/06/29 08:19:29;;;;;;;0.60;0.50;;;22.20;66.60;;;;;;4989271;28;20136;-19
2021/06/29 08:21:55;;;;;;;1.50;0.68;;;22.10;66.90;;;;;;4989114;28;20117;-20
2021/06/29 08:24:20;;;;;;;2.45;0.60;;;22.10;66.70;;;;;;4988499;28;20038;-19
2021/06/29 08:26:46;;;;;;;0.90;0.50;;;22.10;67.00;;;;;;4966441;28;20029;-21
2021/06/29 08:29:12;;;;;;;0.60;0.55;;;22.10;67.40;;;;;;4986466;28;20030;-21
2021/06/29 08:31:38;;;;;;;1.20;0.55;;;22.20;67.50;;;;;;4989450;28;20041;-22
2021/06/29 08:34:04;;;;;;;1.08;0.40;;;22.20;66.70;;;;;;4989270;28;20022;-22
2021/06/29 08:36:30;;;;;;;0.85;0.52;;;22.20;66.60;;;;;;4989528;28;20036;-21
2021/06/29 08:38:57;;;;;;;0.82;0.43;;;22.20;66.90;;;;;;4989309;28;20505;-21
2021/06/29 08:41:23;;;;;;;1.95;0.50;;;22.30;67.80;;;;;;4989850;28;20022;-19
2021/06/29 08:43:48;;;;;;;0.82;0.60;;;22.30;68.20;;;;;;5004760;28;20552;-21
2021/06/29 08:46:14;;;;;;;0.52;0.40;;;22.30;68.80;;;;;;4965293;28;20031;-20
2021/06/29 08:48:39;;;;;;;1.13;0.40;;;22.40;68.80;;;;;;5001256;28;20070;-20
2021/06/29 08:51:06;;;;;;;2.90;0.80;;;22.40;69.60;;;;;;4989558;28;20120;-18
2021/06/29 08:53:32;;;;;;;0.93;0.50;;;22.40;69.60;;;;;;4988760;28;20038;-20
2021/06/29 08:55:58;;;;;;;1.15;0.60;;;22.50;69.50;;;;;;4990394;28;20030;-20
2021/06/29 08:58:24;;;;;;;2.05;0.73;;;22.50;70.20;;;;;;4988775;28;20045;-20
2021/06/29 09:00:51;;;;;;;3.42;0.70;;;22.50;70.60;;;;;;4987806;28;20400;-20
2021/06/29 09:03:17;;;;;;;3.63;0.82;;;22.40;70.70;;;;;;4987181;28;20110;-21
2021/06/29 09:05:46;;;;;;;6.05;0.50;;;22.50;71.40;;;;;;4969386;28;20030;-21
2021/06/29 09:08:16;;;;;;;1.17;0.70;;;22.50;70.20;;;;;;4988432;28;20160;-21
2021/06/29 09:10:45;;;;;;;1.58;0.60;;;22.60;70.00;;;;;;4988079;28;20022;-20
2021/06/29 09:13:16;;;;;;;2.28;0.77;;;22.50;69.80;;;;;;5002521;28;20043;-20
2021/06/29 09:15:43;;;;;;;2.95;0.70;;;22.50;69.70;;;;;;4955030;28;20161;-21
2021/06/29 09:18:12;;;;;;;2.30;0.65;;;22.60;69.50;;;;;;4988501;28;20049;-21
2021/06/29 09:20:42;;;;;;;1.90;0.60;;;22.60;69.10;;;;;;4987799;28;20026;-19
2021/06/29 09:23:13;;;;;;;1.40;0.65;;;22.60;68.70;;;;;;4989910;28;20034;-19
2021/06/29 09:25:40;;;;;;;1.30;0.63;;;22.70;68.50;;;;;;5002841;28;20083;-21
2021/06/29 09:28:06;;;;;;;2.80;0.40;;;22.70;68.20;;;;;;4988485;28;20497;-19
2021/06/29 09:30:34;;;;;;;2.15;0.63;;;22.70;67.70;;;;;;4988590;28;20034;-21
2021/06/29 09:33:00;;;;;;;2.05;0.50;;;22.80;67.50;;;;;;4988197;28;20571;-20
2021/06/29 09:35:26;;;;;;;1.67;0.70;;;22.90;66.90;;;;;;4988227;28;20114;-21
2021/06/29 09:37:51;;;;;;;0.52;0.30;;;22.90;66.80;;;;;;4988885;28;20041;-19
2021/06/29 09:40:18;;;;;;;0.75;0.40;;;23.00;66.20;;;;;;5002737;28;20034;-20
2021/06/29 09:42:44;;;;;;;2.42;0.50;;;23.00;65.90;;;;;;4988258;28;20105;-20
2021/06/29 09:45:35;;;;;;;1.40;0.50;;;23.00;65.90;;;;;;4988471;28;20472;-20
2021/06/29 09:48:02;;;;;;;1.05;0.50;;;23.00;65.90;;;;;;4974621;28;20030;-20
2021/06/29 09:50:36;;;;;;;1.67;0.55;;;22.90;65.90;;;;;;4988307;28;20125;-19
2021/06/29 09:53:17;;;;;;;1.90;0.47;;;22.90;65.70;;;;;;4988660;28;20027;-20
2021/06/29 09:55:47;;;;;;;0.75;0.50;;;22.90;66.20;;;;;;4988740;28;20495;-20
2021/06/29 09:58:14;;;;;;;1.95;0.40;;;22.90;66.40;;;;;;4988180;28;20078;-30
2021/06/29 10:00:41;;;;;;;1.88;0.40;;;22.90;66.70;;;;;;4990126;28;20085;-20
2021/06/29 10:03:33;;;;;;;0.40;0.30;;;22.90;66.90;;;;;;4992550;28;20102;-20
2021/06/29 10:06:11;;;;;;;0.80;0.30;;;22.90;67.40;;;;;;4978212;28;20030;-20
2021/06/29 10:08:38;;;;;;;1.17;0.30;;;22.90;67.00;;;;;;4992241;28;20023;-20
2021/06/29 10:11:15;;;;;;;0.35;0.30;;;22.90;66.80;;;;;;4993750;28;20121;-20
2021/06/29 10:13:44;;;;;;;1.52;0.50;;;23.00;66.80;;;;;;4992269;28;20489;-20
2021/06/29 10:16:11;;;;;;;0.70;0.30;;;23.00;66.60;;;;;;4991912;28;20061;-19
2021/06/29 10:19:15;;;;;;;0.45;0.38;;;23.00;66.10;;;;;;4991719;28;20554;-20
2021/06/29 10:21:30;;;;;;;1.77;0.52;;;23.00;64.60;;;;;;4999993;28;20034;-20
2021/06/29 10:24:00;;;;;;;1.65;0.50;;;22.90;64.80;;;;;;4992131;28;20038;-21
2021/06/29 10:26:27;;;;;;;0.38;0.30;;;23.00;65.60;;;;;;4992337;28;20584;-20
2021/06/29 10:28:52;;;;;;;3.92;0.70;;;23.00;65.10;;;;;;4991720;28;20026;-19
2021/06/29 10:31:24;;;;;;;1.23;0.30;;;22.90;65.30;;;;;;5007205;28;20077;-20
2021/06/29 10:33:49;;;;;;;0.60;0.60;;;23.00;65.50;;;;;;4974573;28;20023;-20
2021/06/29 10:36:15;;;;;;;2.92;1.05;;;23.00;64.80;;;;;;4991749;28;20027;-19
2021/06/29 10:38:41;;;;;;;1.23;0.60;;;23.00;64.60;;;;;;4991491;28;20073;-20
2021/06/29 10:41:07;;;;;;;0.82;0.70;;;23.00;64.60;;;;;;4992985;28;20073;-20
2021/06/29 10:43:36;;;;;;;1.13;0.70;;;23.00;64.60;;;;;;4990023;28;20374;-20
2021/06/29 10:46:02;;;;;;;1.25;0.80;;;23.00;64.80;;;;;;5005940;28;20030;-20
2021/06/29 10:48:28;;;;;;;3.90;0.68;;;23.00;65.00;;;;;;4991130;28;20081;-19
2021/06/29 10:50:55;;;;;;;3.47;0.77;;;23.10;64.70;;;;;;4991093;28;20050;-19
2021/06/29 10:53:46;;;;;;;1.40;0.82;;;23.10;64.50;;;;;;4992773;28;20039;-19
2021/06/29 10:56:16;;;;;;;5.05;2.00;;;23.20;64.20;;;;;;4991572;28;20125;-20
2021/06/29 10:58:49;;;;;;;3.50;2.05;;;23.20;64.60;;;;;;4973615;28;20046;-24
2021/06/29 11:01:24;;;;;;;7.85;2.13;;;23.20;65.00;;;;;;4991217;28;20030;-22
2021/06/29 11:03:54;;;;;;;8.65;3.70;;;23.20;64.50;;;;;;4991036;28;20033;-25
2021/06/29 11:06:47;;;;;;;3.10;2.15;;;23.30;64.40;;;;;;4991166;28;20026;-18
2021/06/29 11:09:15;;;;;;;2.70;1.50;;;23.30;63.70;;;;;;4979130;28;20027;-18
2021/06/29 11:11:41;;;;;;;1.98;1.35;;;23.30;63.50;;;;;;4990102;28;20104;-18
2021/06/29 11:14:27;;;;;;;4.20;1.45;;;23.30;63.60;;;;;;4992199;28;20508;-18
2021/06/29 11:16:54;;;;;;;1.63;1.52;;;23.40;63.60;;;;;;4991327;28;20045;-18
2021/06/29 11:19:20;;;;;;;3.45;1.15;;;23.40;63.60;;;;;;5006208;28;20039;-18
2021/06/29 11:21:45;;;;;;;1.27;1.08;;;23.40;63.80;;;;;;4991104;28;20029;-18
2021/06/29 11:25:01;;;;;;;2.03;1.30;;;23.40;63.80;;;;;;4990822;28;20034;-18
2021/06/29 11:28:13;;;;;;;1.33;1.00;;;23.30;63.90;;;;;;4958000;28;20118;-18
2021/06/29 11:30:55;;;;;;;1.88;1.15;;;23.20;63.80;;;;;;4881722;29;20036;-18
2021/06/29 11:33:42;;;;;;;1.45;0.77;;;23.30;63.90;;;;;;4889946;29;20032;-19
2021/06/29 11:36:20;;;;;;;1.35;0.90;;;23.30;63.90;;;;;;4889839;29;20040;-18
2021/06/29 11:38:45;;;;;;;1.08;0.80;;;23.30;63.80;;;;;;4890414;29;20053;-19
2021/06/29 11:41:36;;;;;;;1.55;0.90;;;23.30;63.90;;;;;;4892837;29;20481;-20
2021/06/29 11:44:07;;;;;;;2.10;0.80;;;23.20;64.00;;;;;;4891481;29;20039;-18
2021/06/29 11:46:48;;;;;;;1.20;0.60;;;23.20;64.00;;;;;;4889652;29;20497;-18
2021/06/29 11:49:15;;;;;;;0.90;0.80;;;23.20;64.10;;;;;;4889637;29;20041;-18
2021/06/29 11:51:52;;;;;;;0.70;0.65;;;23.30;64.20;;;;;;4889486;29;20140;-18
2021/06/29 11:54:51;;;;;;;1.05;0.70;;;23.30;64.00;;;;;;4889556;29;20055;-18
2021/06/29 11:57:24;;;;;;;1.25;0.63;;;23.30;64.00;;;;;;4848453;29;20148;-20
2021/06/29 11:59:50;;;;;;;1.05;0.65;;;23.30;64.10;;;;;;4835198;29;20506;-18
2021/06/29 12:02:27;;;;;;;0.90;0.70;;;23.20;63.90;;;;;;4841371;29;20049;-23
2021/06/29 12:05:00;;;;;;;0.75;0.65;;;23.30;63.90;;;;;;4840669;29;20099;-18
2021/06/29 12:07:42;;;;;;;0.77;0.77;;;23.30;63.70;;;;;;4892839;29;20040;-19
2021/06/29 12:10:14;;;;;;;1.25;0.90;;;23.30;64.40;;;;;;4907826;29;20835;-18
2021/06/29 12:12:41;;;;;;;0.93;0.57;;;23.30;63.80;;;;;;4908164;29;20036;-18
2021/06/29 12:15:16;;;;;;;0.60;0.60;;;23.30;63.80;;;;;;4908290;29;20068;-19
2021/06/29 12:18:06;;;;;;;0.85;0.70;;;23.30;63.80;;;;;;4909377;29;20052;-18
2021/06/29 12:20:42;;;;;;;1.17;0.55;;;23.30;63.60;;;;;;4910027;29;20036;-18
2021/06/29 12:23:11;;;;;;;0.50;0.40;;;23.30;63.70;;;;;;4910755;29;20232;-20
2021/06/29 12:25:37;;;;;;;0.70;0.50;;;23.30;63.90;;;;;;4913155;29;20539;-18
2021/06/29 12:28:09;;;;;;;0.88;0.60;;;23.30;63.80;;;;;;4907949;29;20191;-18
2021/06/29 12:30:44;;;;;;;1.50;0.50;;;23.20;63.80;;;;;;4907652;29;20115;-18
2021/06/29 12:33:22;;;;;;;0.52;0.52;;;23.30;64.00;;;;;;4953856;28;20213;-18
2021/06/29 12:35:50;;;;;;;0.50;0.50;;;23.30;63.80;;;;;;4990279;28;20053;-18
2021/06/29 12:38:30;;;;;;;0.57;0.57;;;23.30;63.90;;;;;;4989016;28;20042;-19
2021/06/29 12:41:06;;;;;;;0.40;0.40;;;23.30;63.70;;;;;;4988512;28;20026;-18
2021/06/29 12:43:35;;;;;;;0.40;0.40;;;23.30;64.00;;;;;;4986097;28;20555;-19
2021/06/29 12:46:13;;;;;;;0.52;0.52;;;23.20;64.20;;;;;;4987518;28;20079;-20
2021/06/29 12:48:39;;;;;;;0.40;0.40;;;23.10;64.30;;;;;;4988413;28;20548;-20
2021/06/29 12:51:06;;;;;;;0.55;0.50;;;23.10;64.20;;;;;;4988320;28;20133;-20
2021/06/29 12:53:32;;;;;;;0.40;0.40;;;23.10;64.40;;;;;;4988394;28;20022;-20
2021/06/29 12:56:16;;;;;;;0.40;0.40;;;23.10;64.40;;;;;;4988944;28;20034;-19